Time;durP1;ratioP1;P1;durP2;ratioP2;P2;SDS_P1;SDS_P2;PMS_P1;PMS_P2;Temp;Humidity;BMP_temperature;BMP_pressure;BME280_temperature;BME280_humidity;BME280_pressure;Samples;Min_cycle;Max_cycle;Signal;HPM_P1;HPM_P2
2023/12/01 00:00:08;;;;;;;43.92;14.73;;;-0.60;99.90;;;;;;4941826;28;20043;-77
2023/12/01 00:02:33;;;;;;;39.85;12.25;;;-0.60;99.90;;;;;;4948272;28;20042;-77
2023/12/01 00:04:59;;;;;;;57.25;15.40;;;-0.60;99.90;;;;;;4958864;28;20424;-77
2023/12/01 00:07:25;;;;;;;46.13;14.68;;;-0.70;99.90;;;;;;4948159;28;20034;-77
2023/12/01 00:09:52;;;;;;;45.13;14.88;;;-0.70;99.90;;;;;;4961742;28;20050;-77
2023/12/01 00:12:18;;;;;;;52.65;14.15;;;-0.70;99.90;;;;;;4962639;28;20073;-77
2023/12/01 00:14:43;;;;;;;55.80;16.63;;;-0.60;99.90;;;;;;4963321;28;20418;-77
2023/12/01 00:17:09;;;;;;;70.70;15.40;;;-0.70;99.90;;;;;;4929720;28;20053;-77
2023/12/01 00:19:35;;;;;;;56.50;15.93;;;-0.70;99.90;;;;;;4958972;28;20464;-77
2023/12/01 00:22:00;;;;;;;54.70;16.08;;;-0.70;99.90;;;;;;4961472;28;20421;-77
2023/12/01 00:24:26;;;;;;;41.55;15.55;;;-0.70;99.90;;;;;;4945666;28;20118;-77
2023/12/01 00:26:51;;;;;;;55.85;16.30;;;-0.70;99.90;;;;;;4957185;28;20721;-77
2023/12/01 00:29:17;;;;;;;47.72;14.45;;;-0.70;99.90;;;;;;4944420;28;20035;-76
2023/12/01 00:31:43;;;;;;;55.85;15.35;;;-0.70;99.90;;;;;;4944955;28;20043;-76
2023/12/01 00:34:08;;;;;;;44.85;13.40;;;-0.70;99.90;;;;;;4964178;28;20043;-77
2023/12/01 00:36:34;;;;;;;54.28;14.52;;;-0.80;99.90;;;;;;4952042;28;20039;-77
2023/12/01 00:39:00;;;;;;;41.80;13.07;;;-0.80;99.90;;;;;;4955087;28;20121;-77
2023/12/01 00:41:25;;;;;;;40.83;12.70;;;-0.80;99.90;;;;;;4960515;28;20045;-77
2023/12/01 00:43:51;;;;;;;54.30;14.27;;;-0.80;99.90;;;;;;4945086;28;20032;-77
2023/12/01 00:46:17;;;;;;;46.60;12.57;;;-0.80;99.90;;;;;;4943022;28;20055;-76
2023/12/01 00:48:43;;;;;;;31.85;11.18;;;-0.80;99.90;;;;;;4954996;28;20031;-76
2023/12/01 00:51:16;;;;;;;32.05;11.02;;;-0.80;99.90;;;;;;4967035;28;20105;-76
2023/12/01 00:53:42;;;;;;;24.50;8.98;;;-0.80;99.90;;;;;;4956118;28;20118;-76
2023/12/01 00:56:09;;;;;;;36.55;12.73;;;-0.80;99.90;;;;;;4917153;28;20030;-77
2023/12/01 00:58:35;;;;;;;36.53;12.23;;;-0.90;99.90;;;;;;4954169;28;20464;-77
2023/12/01 01:01:01;;;;;;;35.85;11.45;;;-0.90;99.90;;;;;;4929465;28;20122;-77
2023/12/01 01:03:26;;;;;;;31.45;11.95;;;-0.90;99.90;;;;;;4947588;28;20362;-77
2023/12/01 01:05:52;;;;;;;34.10;11.48;;;-0.90;99.90;;;;;;4960973;28;20074;-77
2023/12/01 01:08:17;;;;;;;34.33;12.45;;;-0.90;99.90;;;;;;4952372;28;20035;-77
2023/12/01 01:10:43;;;;;;;33.38;11.77;;;-0.90;99.90;;;;;;4947815;28;20624;-77
2023/12/01 01:13:10;;;;;;;32.58;11.65;;;-0.90;99.90;;;;;;4950105;28;20466;-77
2023/12/01 01:15:35;;;;;;;25.65;10.52;;;-0.90;99.90;;;;;;4954017;28;20134;-77
2023/12/01 01:18:01;;;;;;;36.30;12.40;;;-0.90;99.90;;;;;;4966119;28;20138;-77
2023/12/01 01:20:27;;;;;;;34.55;10.50;;;-0.90;99.90;;;;;;4942416;28;20496;-77
2023/12/01 01:22:52;;;;;;;36.47;12.57;;;-0.90;99.90;;;;;;4954002;28;20035;-77
2023/12/01 01:25:18;;;;;;;30.90;10.45;;;-0.90;99.90;;;;;;4945165;28;20634;-77
2023/12/01 01:27:44;;;;;;;27.33;11.70;;;-0.90;99.90;;;;;;4963689;28;20125;-77
2023/12/01 01:30:10;;;;;;;26.75;10.25;;;-0.90;99.90;;;;;;4967290;28;20445;-77
2023/12/01 01:32:35;;;;;;;20.88;8.75;;;-1.00;99.90;;;;;;4958230;28;20126;-77
2023/12/01 01:35:01;;;;;;;33.40;10.90;;;-0.90;99.90;;;;;;4935416;28;20412;-77
2023/12/01 01:37:27;;;;;;;25.13;9.23;;;-1.00;99.90;;;;;;4942876;28;20039;-77
2023/12/01 01:39:52;;;;;;;28.67;10.43;;;-1.00;99.90;;;;;;4942056;28;20046;-77
2023/12/01 01:42:18;;;;;;;21.98;9.10;;;-1.10;99.90;;;;;;4948994;28;20054;-77
2023/12/01 01:44:44;;;;;;;29.88;10.60;;;-1.10;99.90;;;;;;4925704;28;20130;-77
2023/12/01 01:47:09;;;;;;;24.88;9.05;;;-1.10;99.90;;;;;;4942710;28;20087;-77
2023/12/01 01:49:35;;;;;;;21.63;8.23;;;-1.20;99.90;;;;;;4923289;28;20110;-77
2023/12/01 01:52:02;;;;;;;26.80;11.00;;;-1.20;99.90;;;;;;4943851;28;20035;-77
2023/12/01 01:54:28;;;;;;;25.40;9.48;;;-1.20;99.90;;;;;;4965091;28;20043;-77
2023/12/01 01:56:55;;;;;;;21.85;8.65;;;-1.20;99.90;;;;;;4962474;28;20149;-77
2023/12/01 01:59:21;;;;;;;23.42;9.50;;;-1.20;99.90;;;;;;4974077;28;20045;-77
2023/12/01 02:01:51;;;;;;;21.58;9.85;;;-1.20;99.90;;;;;;4959633;28;20059;-77
2023/12/01 02:04:17;;;;;;;19.25;8.38;;;-1.30;99.90;;;;;;4965323;28;20121;-77
2023/12/01 02:06:45;;;;;;;24.33;7.90;;;-1.30;99.90;;;;;;4960580;28;20031;-77
2023/12/01 02:09:13;;;;;;;23.58;8.88;;;-1.30;99.90;;;;;;4947515;28;20031;-77
2023/12/01 02:11:42;;;;;;;21.88;8.93;;;-0.60;99.90;;;;;;4935178;28;20037;-77
2023/12/01 02:14:08;;;;;;;23.23;9.85;;;-1.30;99.90;;;;;;4942811;28;20477;-77
2023/12/01 02:16:34;;;;;;;19.02;8.57;;;-1.10;99.90;;;;;;4947839;28;20047;-77
2023/12/01 02:19:00;;;;;;;23.35;9.65;;;-1.40;99.90;;;;;;4956405;28;20047;-77
2023/12/01 02:21:36;;;;;;;24.02;8.85;;;-1.40;99.90;;;;;;4958181;28;20038;-77
2023/12/01 02:24:03;;;;;;;23.42;9.23;;;-1.50;99.90;;;;;;4947883;28;20046;-77
2023/12/01 02:26:29;;;;;;;22.20;8.50;;;-1.50;99.90;;;;;;4961632;28;20051;-77
2023/12/01 02:28:54;;;;;;;21.38;9.38;;;-1.60;99.90;;;;;;4951748;28;20042;-76
2023/12/01 02:31:20;;;;;;;23.08;8.32;;;-1.60;99.90;;;;;;4945689;28;20378;-77
2023/12/01 02:33:46;;;;;;;26.35;8.15;;;-1.40;99.90;;;;;;4950008;28;20047;-77
2023/12/01 02:36:13;;;;;;;20.58;7.93;;;-1.60;99.90;;;;;;4944525;28;20620;-77
2023/12/01 02:38:39;;;;;;;28.52;8.88;;;-1.70;99.90;;;;;;4953320;28;20042;-77
2023/12/01 02:41:05;;;;;;;25.15;9.57;;;-1.70;99.90;;;;;;4923239;28;20050;-77
2023/12/01 02:43:32;;;;;;;26.25;9.90;;;-1.70;99.90;;;;;;4962339;28;20567;-77
2023/12/01 02:45:57;;;;;;;25.13;9.48;;;-1.70;99.90;;;;;;4955561;28;20054;-77
2023/12/01 02:48:23;;;;;;;16.83;6.45;;;-1.70;99.90;;;;;;4962153;28;20051;-77
2023/12/01 02:50:49;;;;;;;21.45;8.30;;;-1.80;99.90;;;;;;4962341;28;20042;-77
2023/12/01 02:53:17;;;;;;;25.10;8.68;;;-1.80;99.90;;;;;;4960515;28;20041;-77
2023/12/01 02:55:43;;;;;;;21.23;8.43;;;-1.80;99.90;;;;;;4945033;28;20485;-77
2023/12/01 02:58:09;;;;;;;26.17;8.10;;;-1.90;99.90;;;;;;4966588;28;20043;-77
2023/12/01 03:00:35;;;;;;;30.63;10.38;;;-1.90;99.90;;;;;;4917609;28;20105;-77
2023/12/01 03:03:00;;;;;;;23.42;8.50;;;-1.80;99.90;;;;;;4945880;28;20039;-77
2023/12/01 03:05:26;;;;;;;26.67;9.82;;;-1.80;99.90;;;;;;4970695;28;20047;-77
2023/12/01 03:07:52;;;;;;;28.95;11.05;;;-1.90;99.90;;;;;;4941370;28;20039;-77
2023/12/01 03:10:18;;;;;;;21.45;7.88;;;-1.90;99.90;;;;;;4949419;28;20141;-77
2023/12/01 03:12:44;;;;;;;25.33;8.88;;;-1.90;99.90;;;;;;4957865;28;20094;-77
2023/12/01 03:15:17;;;;;;;24.45;8.93;;;-1.90;99.90;;;;;;4949344;28;20075;-77
2023/12/01 03:17:43;;;;;;;20.27;8.23;;;-1.90;99.90;;;;;;4946841;28;20118;-77
2023/12/01 03:20:10;;;;;;;17.98;8.00;;;-2.00;99.90;;;;;;4912331;28;20114;-77
2023/12/01 03:22:37;;;;;;;21.15;8.65;;;-2.00;99.90;;;;;;4955211;28;20047;-77
2023/12/01 03:25:03;;;;;;;20.60;7.05;;;-2.10;99.90;;;;;;4985046;28;20042;-77
2023/12/01 03:27:28;;;;;;;25.42;9.32;;;-2.10;99.90;;;;;;4945197;28;20401;-77
2023/12/01 03:29:54;;;;;;;20.25;7.55;;;-2.20;99.90;;;;;;4956714;28;20035;-77
2023/12/01 03:32:20;;;;;;;22.88;8.63;;;-2.30;99.90;;;;;;4951017;28;20027;-77
2023/12/01 03:34:45;;;;;;;23.02;9.30;;;-2.20;99.90;;;;;;4954000;28;20077;-77
2023/12/01 03:37:11;;;;;;;27.13;8.65;;;-2.20;99.90;;;;;;4960111;28;20046;-77
2023/12/01 03:39:37;;;;;;;23.75;8.75;;;-2.20;99.90;;;;;;4928736;28;20043;-77
2023/12/01 03:42:04;;;;;;;30.98;9.52;;;-2.20;99.90;;;;;;4974221;28;20401;-77
2023/12/01 03:44:29;;;;;;;25.88;9.40;;;-2.20;99.90;;;;;;4940242;28;20051;-77
2023/12/01 03:46:55;;;;;;;32.70;11.27;;;-2.20;99.90;;;;;;4960253;28;20043;-77
2023/12/01 03:49:21;;;;;;;24.02;10.23;;;-2.20;99.90;;;;;;4960186;28;20674;-77
2023/12/01 03:51:47;;;;;;;23.80;7.97;;;-2.20;99.90;;;;;;4961651;28;20039;-77
2023/12/01 03:54:12;;;;;;;24.17;10.48;;;-2.20;99.90;;;;;;4928131;28;20130;-77
2023/12/01 03:56:39;;;;;;;22.27;8.77;;;-2.20;99.90;;;;;;4946208;28;20085;-77
2023/12/01 03:59:09;;;;;;;20.95;8.52;;;-2.20;99.90;;;;;;4959943;28;20126;-77
2023/12/01 04:01:39;;;;;;;26.90;10.18;;;-2.20;99.90;;;;;;4933657;28;20039;-77
2023/12/01 04:04:05;;;;;;;27.15;11.10;;;-2.20;99.90;;;;;;4967408;28;20065;-77
2023/12/01 04:06:35;;;;;;;21.30;8.95;;;-2.30;99.90;;;;;;4965002;28;20039;-77
2023/12/01 04:09:05;;;;;;;23.45;7.95;;;-2.30;99.90;;;;;;4938826;28;20070;-77
2023/12/01 04:11:32;;;;;;;21.77;8.10;;;-2.30;99.90;;;;;;4958387;28;20628;-77
2023/12/01 04:13:58;;;;;;;23.45;11.93;;;-2.30;99.90;;;;;;4962899;28;20510;-77
2023/12/01 04:16:24;;;;;;;27.13;10.40;;;-2.30;99.90;;;;;;4967352;28;20046;-78
2023/12/01 04:18:53;;;;;;;29.52;11.68;;;-2.30;99.90;;;;;;4941503;28;20074;-77
2023/12/01 04:21:19;;;;;;;28.38;8.80;;;-2.30;99.90;;;;;;4953260;28;20525;-77
2023/12/01 04:23:45;;;;;;;24.30;9.15;;;-2.40;99.90;;;;;;4940717;28;20042;-77
2023/12/01 04:26:12;;;;;;;31.77;12.15;;;-2.40;99.90;;;;;;4952565;28;20034;-77
2023/12/01 04:28:40;;;;;;;27.50;11.27;;;-2.40;99.90;;;;;;4946705;28;20074;-77
2023/12/01 04:31:06;;;;;;;26.15;9.82;;;-2.40;99.90;;;;;;4958308;28;20078;-77
2023/12/01 04:33:32;;;;;;;27.40;10.00;;;-2.50;99.90;;;;;;4943835;28;20039;-77
2023/12/01 04:35:58;;;;;;;27.98;10.00;;;-2.50;99.90;;;;;;4955702;28;20469;-77
2023/12/01 04:38:24;;;;;;;28.17;10.43;;;-2.50;99.90;;;;;;4940431;28;20071;-78
2023/12/01 04:40:54;;;;;;;30.23;9.52;;;-2.50;99.90;;;;;;4942496;28;20042;-77
2023/12/01 04:43:20;;;;;;;36.15;10.13;;;-2.50;99.90;;;;;;4943760;28;20046;-78
2023/12/01 04:45:45;;;;;;;18.77;8.32;;;-2.60;99.90;;;;;;4944807;28;20058;-77
2023/12/01 04:48:11;;;;;;;26.73;9.65;;;-2.60;99.90;;;;;;4949007;28;20101;-77
2023/12/01 04:50:46;;;;;;;28.58;9.70;;;-2.60;99.90;;;;;;4947559;28;20038;-77
2023/12/01 04:53:12;;;;;;;24.73;9.00;;;-2.60;99.90;;;;;;4954034;28;20042;-77
2023/12/01 04:55:38;;;;;;;21.90;9.52;;;-2.60;99.90;;;;;;4956744;28;20051;-77
2023/12/01 04:58:04;;;;;;;19.88;9.13;;;-2.60;99.90;;;;;;4945003;28;20571;-77
2023/12/01 05:00:30;;;;;;;25.83;9.27;;;-2.60;99.90;;;;;;4929779;28;20045;-77
2023/12/01 05:02:57;;;;;;;29.83;10.38;;;-2.60;99.90;;;;;;4932364;28;20532;-78
2023/12/01 05:05:23;;;;;;;29.77;9.85;;;-2.70;99.90;;;;;;4959353;28;20043;-77
2023/12/01 05:07:51;;;;;;;27.77;10.32;;;-2.70;99.90;;;;;;4956720;28;20741;-77
2023/12/01 05:10:19;;;;;;;31.63;11.02;;;-2.60;99.90;;;;;;4941712;28;20106;-78
2023/12/01 05:12:49;;;;;;;27.55;10.30;;;-2.70;99.90;;;;;;4953721;28;20097;-77
2023/12/01 05:15:16;;;;;;;31.35;10.18;;;-2.70;99.90;;;;;;4939076;28;20050;-77
2023/12/01 05:17:46;;;;;;;22.25;7.95;;;-2.60;99.90;;;;;;4962908;28;20047;-77
2023/12/01 05:20:15;;;;;;;23.02;9.45;;;-2.70;99.90;;;;;;4956550;28;20042;-77
2023/12/01 05:22:48;;;;;;;27.70;9.23;;;-2.70;99.90;;;;;;4944145;28;20034;-77
2023/12/01 05:25:15;;;;;;;19.35;6.70;;;-2.70;99.90;;;;;;4930929;28;20117;-77
2023/12/01 05:27:46;;;;;;;23.23;8.25;;;-2.80;99.90;;;;;;4951052;28;20118;-77
2023/12/01 05:30:16;;;;;;;19.70;9.02;;;-2.70;99.90;;;;;;4945726;28;20047;-77
2023/12/01 05:32:44;;;;;;;21.35;9.90;;;-2.80;99.90;;;;;;4957793;28;20054;-77
2023/12/01 05:35:10;;;;;;;26.92;9.15;;;-2.80;99.90;;;;;;4974278;28;20069;-78
2023/12/01 05:37:58;;;;;;;24.40;8.38;;;-2.80;99.90;;;;;;4956436;28;20532;-77
2023/12/01 05:40:30;;;;;;;26.08;9.13;;;-2.80;99.90;;;;;;4970741;28;20054;-78
2023/12/01 05:42:57;;;;;;;28.52;9.80;;;-2.90;99.90;;;;;;4957585;28;20090;-77
2023/12/01 05:45:26;;;;;;;28.50;9.43;;;-2.90;99.90;;;;;;4961197;28;20065;-78
2023/12/01 05:47:53;;;;;;;19.40;8.90;;;-2.90;99.90;;;;;;4969223;28;20043;-78
2023/12/01 05:50:24;;;;;;;23.65;8.85;;;-3.00;99.90;;;;;;4946481;28;20043;-77
2023/12/01 05:52:52;;;;;;;22.90;8.35;;;-3.10;99.90;;;;;;4961571;28;20045;-78
2023/12/01 05:55:21;;;;;;;17.90;7.68;;;-3.10;99.90;;;;;;4996510;28;20047;-78
2023/12/01 05:57:58;;;;;;;22.80;8.05;;;-3.10;99.90;;;;;;4958987;28;20046;-78
2023/12/01 06:00:31;;;;;;;22.35;8.00;;;-3.10;99.90;;;;;;4967276;28;20050;-78
2023/12/01 06:03:08;;;;;;;27.08;9.70;;;-3.10;99.90;;;;;;4968509;28;20050;-78
2023/12/01 06:05:35;;;;;;;29.40;9.88;;;-3.10;99.90;;;;;;4961947;28;20055;-78
2023/12/01 06:08:02;;;;;;;19.85;7.95;;;-3.10;99.90;;;;;;4959027;28;20045;-78
2023/12/01 06:10:31;;;;;;;20.98;9.10;;;-3.10;99.90;;;;;;4966838;28;20134;-78
2023/12/01 06:12:58;;;;;;;17.80;8.80;;;-3.10;99.90;;;;;;4970404;28;20547;-78
2023/12/01 06:15:26;;;;;;;20.30;8.10;;;-3.10;99.90;;;;;;4946411;28;20522;-78
2023/12/01 06:17:52;;;;;;;23.20;8.98;;;-3.10;99.90;;;;;;4958678;28;20066;-77
2023/12/01 06:20:20;;;;;;;25.35;8.25;;;-3.10;99.90;;;;;;4948031;28;20077;-77
2023/12/01 06:22:56;;;;;;;20.45;8.25;;;-3.00;99.90;;;;;;4969121;28;20496;-78
2023/12/01 06:25:29;;;;;;;26.63;8.98;;;-3.00;99.90;;;;;;4967651;28;20463;-78
2023/12/01 06:27:56;;;;;;;27.92;9.93;;;-3.00;99.90;;;;;;4961911;28;20071;-78
2023/12/01 06:30:23;;;;;;;19.45;8.50;;;-3.00;99.90;;;;;;4963350;28;20062;-78
2023/12/01 06:32:50;;;;;;;21.45;9.55;;;-3.00;99.90;;;;;;4943438;28;20097;-78
2023/12/01 06:35:17;;;;;;;23.70;8.38;;;-3.00;99.90;;;;;;4960169;28;20057;-78
2023/12/01 06:37:44;;;;;;;18.13;7.53;;;-3.10;99.90;;;;;;4958213;28;20042;-78
2023/12/01 06:40:11;;;;;;;15.07;7.38;;;-3.10;99.90;;;;;;4940058;28;20050;-78
2023/12/01 06:42:48;;;;;;;18.70;6.95;;;-3.10;99.90;;;;;;4963763;28;20043;-78
2023/12/01 06:45:15;;;;;;;13.85;6.50;;;-3.20;99.90;;;;;;4963241;28;20051;-78
2023/12/01 06:47:46;;;;;;;16.20;7.22;;;-3.20;99.90;;;;;;4948113;28;20055;-78
2023/12/01 06:50:14;;;;;;;19.20;6.30;;;-3.30;99.90;;;;;;4964293;28;20066;-78
2023/12/01 06:52:40;;;;;;;11.20;5.57;;;-3.30;99.90;;;;;;4946168;28;20118;-78
2023/12/01 06:55:07;;;;;;;20.70;7.50;;;-3.30;99.90;;;;;;4940527;28;20066;-78
2023/12/01 06:57:40;;;;;;;17.50;7.43;;;-3.40;99.90;;;;;;4988048;28;20074;-78
2023/12/01 07:00:21;;;;;;;14.75;6.18;;;-3.50;99.90;;;;;;4962489;28;20039;-78
2023/12/01 07:02:48;;;;;;;13.63;5.93;;;-3.50;99.90;;;;;;4963582;28;20038;-78
2023/12/01 07:05:19;;;;;;;14.05;6.40;;;-2.60;99.90;;;;;;4969457;28;20039;-78
2023/12/01 07:07:47;;;;;;;15.18;6.60;;;-3.50;99.90;;;;;;4962539;28;20031;-78
2023/12/01 07:10:14;;;;;;;18.80;7.22;;;-3.50;99.90;;;;;;4938862;28;20124;-78
2023/12/01 07:12:39;;;;;;;19.52;7.70;;;-3.50;99.90;;;;;;4947467;28;20044;-78
2023/12/01 07:15:11;;;;;;;12.77;6.63;;;-3.50;99.90;;;;;;4952511;28;20043;-78
2023/12/01 07:17:38;;;;;;;16.42;6.13;;;-3.50;99.90;;;;;;4957457;28;20047;-78
2023/12/01 07:20:14;;;;;;;11.52;5.57;;;-3.50;99.90;;;;;;4943963;28;20038;-78
2023/12/01 07:22:43;;;;;;;11.07;6.55;;;-3.50;99.90;;;;;;4941956;28;20043;-78
2023/12/01 07:25:10;;;;;;;19.85;6.55;;;-3.60;99.90;;;;;;4951346;28;20047;-78
2023/12/01 07:27:40;;;;;;;13.23;6.32;;;-3.60;99.90;;;;;;4960808;28;20085;-78
2023/12/01 07:30:06;;;;;;;12.63;6.80;;;-3.60;99.90;;;;;;4946040;28;20035;-79
2023/12/01 07:32:33;;;;;;;19.52;6.78;;;-3.60;99.90;;;;;;4915539;28;20041;-79
2023/12/01 07:34:58;;;;;;;24.92;7.68;;;-3.70;99.90;;;;;;4947913;28;20042;-79
2023/12/01 07:37:24;;;;;;;13.75;6.50;;;-3.70;99.90;;;;;;4964393;28;20054;-79
2023/12/01 07:39:50;;;;;;;18.70;7.95;;;-3.60;99.90;;;;;;4944392;28;20039;-79
2023/12/01 07:42:16;;;;;;;14.48;6.95;;;-3.70;99.90;;;;;;4946541;28;20038;-79
2023/12/01 07:44:42;;;;;;;16.20;6.95;;;-3.70;99.90;;;;;;4956084;28;20055;-79
2023/12/01 07:47:11;;;;;;;16.85;7.80;;;-3.70;99.90;;;;;;4958707;28;20133;-79
2023/12/01 07:49:38;;;;;;;12.25;6.65;;;-3.60;99.90;;;;;;4950517;28;20039;-79
2023/12/01 07:52:06;;;;;;;17.02;6.72;;;-3.60;99.90;;;;;;4934848;28;20429;-79
2023/12/01 07:54:33;;;;;;;15.90;6.85;;;-3.40;99.90;;;;;;4939825;28;20043;-80
2023/12/01 07:56:59;;;;;;;15.93;7.47;;;-3.60;99.90;;;;;;4937849;28;20169;-80
2023/12/01 07:59:24;;;;;;;13.82;6.03;;;-3.50;99.90;;;;;;4949181;28;20134;-80
2023/12/01 08:01:51;;;;;;;14.02;6.72;;;-3.50;99.90;;;;;;4949390;28;20485;-80
2023/12/01 08:04:16;;;;;;;18.08;6.35;;;-3.50;99.90;;;;;;4971229;28;20047;-80
2023/12/01 08:06:42;;;;;;;17.13;6.90;;;-3.40;99.90;;;;;;4955050;28;20034;-80
2023/12/01 08:09:08;;;;;;;18.13;6.85;;;-3.40;99.90;;;;;;4968202;28;20038;-80
2023/12/01 08:11:33;;;;;;;17.65;7.30;;;-3.40;99.90;;;;;;4913839;28;20531;-80
2023/12/01 08:14:03;;;;;;;16.77;8.25;;;-3.10;99.90;;;;;;4966060;28;20404;-80
2023/12/01 08:16:29;;;;;;;21.45;8.43;;;-3.40;99.90;;;;;;4959899;28;20043;-80
2023/12/01 08:18:58;;;;;;;17.13;7.57;;;-3.40;99.90;;;;;;4944688;28;20050;-80
2023/12/01 08:21:24;;;;;;;15.07;6.65;;;-3.40;99.90;;;;;;4961291;28;20130;-79
2023/12/01 08:23:49;;;;;;;19.20;8.13;;;-3.40;99.90;;;;;;4947644;28;20723;-80
2023/12/01 08:26:15;;;;;;;19.17;8.52;;;-3.40;99.90;;;;;;4927002;28;20474;-79
2023/12/01 08:28:41;;;;;;;19.92;7.10;;;-3.50;99.90;;;;;;4959643;28;20169;-79
2023/12/01 08:31:07;;;;;;;15.50;6.18;;;-3.40;99.90;;;;;;4926344;28;20035;-79
2023/12/01 08:33:35;;;;;;;15.18;6.97;;;-2.70;99.90;;;;;;4944621;28;20125;-81
2023/12/01 08:36:01;;;;;;;17.63;6.85;;;-3.40;99.90;;;;;;4944254;28;20059;-82
2023/12/01 08:38:27;;;;;;;14.35;7.43;;;-3.40;99.90;;;;;;4957571;28;20511;-76
2023/12/01 08:40:53;;;;;;;12.10;6.55;;;-3.40;99.90;;;;;;4940383;28;20051;-75
2023/12/01 08:43:18;;;;;;;16.88;7.18;;;-3.40;99.90;;;;;;4957259;28;20125;-74
2023/12/01 08:45:44;;;;;;;20.90;7.93;;;-3.30;99.90;;;;;;4958489;28;20163;-74
2023/12/01 08:48:10;;;;;;;19.00;7.80;;;-3.20;99.90;;;;;;4926867;28;20066;-75
2023/12/01 08:50:36;;;;;;;17.15;8.40;;;-3.10;99.90;;;;;;4927074;28;20567;-75
2023/12/01 08:53:02;;;;;;;20.13;8.07;;;-3.00;99.90;;;;;;4957560;28;20125;-75
2023/12/01 08:55:37;;;;;;;15.40;6.97;;;-2.90;99.90;;;;;;4944535;28;20193;-75
2023/12/01 08:58:03;;;;;;;20.50;9.10;;;-2.80;99.90;;;;;;4923884;28;20043;-76
2023/12/01 09:00:30;;;;;;;23.05;7.60;;;-2.70;99.90;;;;;;4958952;28;20047;-75
2023/12/01 09:02:57;;;;;;;16.20;6.43;;;-2.70;99.90;;;;;;4944890;28;20521;-75
2023/12/01 09:05:23;;;;;;;13.13;6.03;;;-1.90;99.90;;;;;;4962681;28;20121;-78
2023/12/01 09:07:48;;;;;;;16.08;7.25;;;-2.50;99.90;;;;;;4949313;28;20034;-77
2023/12/01 09:10:22;;;;;;;21.77;7.43;;;-2.40;99.90;;;;;;4930350;28;20046;-78
2023/12/01 09:12:51;;;;;;;19.00;8.25;;;-2.30;99.90;;;;;;4928965;28;20114;-76
2023/12/01 09:15:17;;;;;;;15.63;7.43;;;-2.40;99.90;;;;;;4972699;28;20043;-79
2023/12/01 09:17:43;;;;;;;18.05;7.70;;;-2.40;99.90;;;;;;4931242;28;20074;-79
2023/12/01 09:20:09;;;;;;;14.60;7.45;;;-2.40;99.90;;;;;;4937767;28;20133;-79
2023/12/01 09:22:36;;;;;;;19.27;7.50;;;-2.40;99.90;;;;;;4947118;28;20062;-76
2023/12/01 09:25:03;;;;;;;21.13;8.55;;;-2.50;99.90;;;;;;4946615;28;20408;-81
2023/12/01 09:27:29;;;;;;;19.73;7.32;;;-2.50;99.90;;;;;;4934198;28;20042;-74
2023/12/01 09:29:54;;;;;;;17.65;7.28;;;-2.50;99.90;;;;;;4963602;28;20038;-74
2023/12/01 09:32:20;;;;;;;16.58;7.13;;;-2.50;99.90;;;;;;4930629;28;20034;-74
2023/12/01 09:34:46;;;;;;;17.95;7.65;;;-2.50;99.90;;;;;;4955285;28;20043;-74
2023/12/01 09:37:14;;;;;;;15.40;7.93;;;-2.50;99.90;;;;;;4960366;28;20030;-73
2023/12/01 09:39:40;;;;;;;18.67;7.78;;;-2.10;99.90;;;;;;4962138;28;20046;-73
2023/12/01 09:42:08;;;;;;;16.42;7.50;;;-2.50;99.90;;;;;;4959905;28;20069;-73
2023/12/01 09:44:36;;;;;;;17.92;7.95;;;-2.50;99.90;;;;;;4961241;28;20077;-73
2023/12/01 09:47:04;;;;;;;21.63;8.80;;;-2.50;99.90;;;;;;4959756;28;20047;-73
2023/12/01 09:49:36;;;;;;;23.38;8.52;;;-2.50;99.90;;;;;;4965936;28;20066;-73
2023/12/01 09:52:02;;;;;;;15.90;7.10;;;-2.40;99.90;;;;;;4963005;28;20370;-73
2023/12/01 09:54:29;;;;;;;17.48;7.28;;;-2.40;99.90;;;;;;4960491;28;20045;-73
2023/12/01 09:56:57;;;;;;;16.00;7.88;;;-2.30;99.90;;;;;;4942356;28;20054;-72
2023/12/01 09:59:23;;;;;;;16.20;8.18;;;-2.20;99.90;;;;;;4961741;28;20397;-73
2023/12/01 10:01:50;;;;;;;19.63;8.23;;;-2.20;99.90;;;;;;4958641;28;20039;-73
2023/12/01 10:04:16;;;;;;;19.25;8.50;;;-2.10;99.90;;;;;;4962501;28;20043;-72
2023/12/01 10:06:42;;;;;;;19.42;8.48;;;-2.10;99.90;;;;;;4962013;28;20053;-73
2023/12/01 10:09:10;;;;;;;19.30;8.27;;;-2.10;99.90;;;;;;4963625;28;20113;-72
2023/12/01 10:11:36;;;;;;;17.85;8.68;;;-2.10;99.90;;;;;;4949253;28;20409;-72
2023/12/01 10:14:08;;;;;;;21.02;9.20;;;-1.40;99.90;;;;;;4946702;28;20050;-72
2023/12/01 10:16:35;;;;;;;20.10;8.15;;;-2.00;99.90;;;;;;4947963;28;20117;-72
2023/12/01 10:19:04;;;;;;;20.30;8.82;;;-1.90;99.90;;;;;;4956503;28;20082;-72
2023/12/01 10:21:49;;;;;;;18.88;8.57;;;-1.90;99.90;;;;;;4946192;28;20035;-72
2023/12/01 10:24:21;;;;;;;18.38;6.97;;;-1.80;99.90;;;;;;4962118;28;20034;-72
2023/12/01 10:26:47;;;;;;;17.67;7.18;;;-1.80;99.90;;;;;;4955514;28;20478;-72
2023/12/01 10:29:30;;;;;;;17.85;7.90;;;-1.70;99.90;;;;;;4959626;28;20038;-74
2023/12/01 10:32:02;;;;;;;16.02;8.27;;;-1.60;99.90;;;;;;4969065;28;20128;-72
2023/12/01 10:34:28;;;;;;;16.13;8.45;;;-1.60;99.90;;;;;;4966209;28;20125;-72
2023/12/01 10:36:54;;;;;;;17.58;7.38;;;-1.40;99.90;;;;;;4970069;28;20637;-72
2023/12/01 10:39:24;;;;;;;14.05;6.43;;;-1.40;99.90;;;;;;4966718;28;20047;-72
2023/12/01 10:41:50;;;;;;;14.70;7.03;;;-1.40;99.90;;;;;;4956414;28;20113;-72
2023/12/01 10:44:17;;;;;;;17.98;7.82;;;-1.40;99.90;;;;;;4956926;28;20058;-72
2023/12/01 10:46:46;;;;;;;18.40;7.68;;;-1.50;99.90;;;;;;4952127;28;20129;-72
2023/12/01 10:49:15;;;;;;;17.42;7.97;;;-1.50;99.90;;;;;;4954808;28;20097;-72
2023/12/01 10:51:42;;;;;;;16.27;7.63;;;-1.50;99.90;;;;;;4960556;28;20059;-72
2023/12/01 10:54:10;;;;;;;15.00;7.63;;;-1.60;99.90;;;;;;4965881;28;20057;-72
2023/12/01 10:57:00;;;;;;;16.65;7.10;;;-1.50;99.90;;;;;;4962051;28;20373;-78
2023/12/01 10:59:27;;;;;;;15.85;7.32;;;-1.50;99.90;;;;;;4960823;28;20051;-73
2023/12/01 11:01:55;;;;;;;15.48;7.93;;;-1.50;99.90;;;;;;4952667;28;20043;-74
2023/12/01 11:04:27;;;;;;;18.50;9.30;;;-1.50;99.90;;;;;;4966487;28;20049;-74
2023/12/01 11:07:02;;;;;;;;;;;-1.50;99.90;;;;;;4952942;28;20125;-74
2023/12/01 11:09:39;;;;;;;17.52;8.18;;;-1.40;99.90;;;;;;4961987;28;20004;-75
2023/12/01 11:12:27;;;;;;;15.43;6.72;;;-1.30;99.90;;;;;;4966692;28;20063;-74
2023/12/01 11:14:54;;;;;;;14.70;6.60;;;-0.90;99.90;;;;;;4953494;28;20038;-74
2023/12/01 11:17:20;;;;;;;16.42;7.15;;;-1.20;99.90;;;;;;4933705;28;20034;-74
2023/12/01 11:19:46;;;;;;;14.02;6.65;;;-1.40;99.90;;;;;;4972051;28;20033;-74
2023/12/01 11:22:37;;;;;;;12.73;6.50;;;-1.40;99.90;;;;;;4940082;28;20492;-74
2023/12/01 11:25:05;;;;;;;17.70;7.40;;;-1.50;99.90;;;;;;4970267;28;20055;-74
2023/12/01 11:27:32;;;;;;;15.20;7.43;;;-1.40;99.90;;;;;;4953938;28;20256;-74
2023/12/01 11:30:12;;;;;;;22.35;7.55;;;-1.30;99.90;;;;;;4954985;28;20065;-73
2023/12/01 11:32:41;;;;;;;18.60;7.00;;;-1.30;99.90;;;;;;4968744;28;20045;-73
2023/12/01 11:35:09;;;;;;;13.32;6.15;;;-1.30;99.90;;;;;;4955414;28;20428;-73
2023/12/01 11:37:54;;;;;;;18.58;7.15;;;-1.20;99.90;;;;;;4970601;28;20054;-72
2023/12/01 11:40:22;;;;;;;14.52;7.20;;;-1.30;99.90;;;;;;4954722;28;20163;-72
2023/12/01 11:42:50;;;;;;;14.70;8.07;;;-1.30;99.90;;;;;;4962299;28;20034;-72
2023/12/01 11:45:16;;;;;;;16.05;7.63;;;-1.30;99.90;;;;;;4936462;28;20055;-73
2023/12/01 11:47:42;;;;;;;14.10;7.43;;;-1.30;99.90;;;;;;4955967;28;20563;-72
2023/12/01 11:50:12;;;;;;;19.10;8.30;;;-1.30;99.90;;;;;;4969639;28;20049;-72
2023/12/01 11:52:38;;;;;;;16.88;6.97;;;-1.30;99.90;;;;;;4955317;28;20046;-72
2023/12/01 11:55:15;;;;;;;15.65;7.47;;;-1.30;99.90;;;;;;4968498;28;20034;-72
2023/12/01 11:57:51;;;;;;;16.42;7.50;;;-1.30;99.90;;;;;;4969415;28;20109;-72
2023/12/01 12:00:17;;;;;;;14.70;7.90;;;-1.30;99.90;;;;;;4965174;28;20050;-72
2023/12/01 12:02:45;;;;;;;14.40;6.95;;;-1.30;99.90;;;;;;4994939;28;20042;-72
2023/12/01 12:05:12;;;;;;;18.33;8.43;;;-1.30;99.90;;;;;;4929967;28;20051;-72
2023/12/01 12:07:38;;;;;;;15.50;6.97;;;-2.60;99.90;;;;;;4954042;28;20061;-72
2023/12/01 12:10:07;;;;;;;15.77;7.93;;;-1.30;99.90;;;;;;4968347;28;20514;-72
2023/12/01 12:12:34;;;;;;;19.90;8.50;;;-1.30;99.90;;;;;;4966543;28;20087;-72
2023/12/01 12:15:10;;;;;;;18.10;9.93;;;-1.30;99.90;;;;;;4947641;28;20035;-73
2023/12/01 12:17:37;;;;;;;18.55;7.90;;;-1.30;99.90;;;;;;4965423;28;20389;-72
2023/12/01 12:20:04;;;;;;;13.50;7.35;;;-1.30;99.90;;;;;;4971380;28;20053;-73
2023/12/01 12:22:30;;;;;;;18.83;8.00;;;-1.30;99.90;;;;;;4956417;28;20057;-73
2023/12/01 12:24:56;;;;;;;17.85;9.32;;;-1.30;99.90;;;;;;4969925;28;20038;-73
2023/12/01 12:27:21;;;;;;;15.13;5.97;;;-1.30;99.90;;;;;;4953416;28;20054;-72
2023/12/01 12:29:47;;;;;;;17.77;8.82;;;-1.30;99.90;;;;;;4966946;28;20117;-73
2023/12/01 12:32:14;;;;;;;18.40;7.97;;;-1.30;99.90;;;;;;4964419;28;20039;-72
2023/12/01 12:34:41;;;;;;;21.05;9.70;;;-1.30;99.90;;;;;;4970944;28;20043;-72
2023/12/01 12:37:10;;;;;;;24.02;9.20;;;-1.30;99.90;;;;;;4945492;28;20508;-72